createdAt,value
2019-01-15T00:00:29.202Z,100564.47
2019-01-15T00:01:04.847Z,100565.34
2019-01-15T00:01:40.295Z,100567.91
2019-01-15T00:02:15.713Z,100566.21
2019-01-15T00:02:51.176Z,100562.80
2019-01-15T00:03:26.843Z,100572.58
2019-01-15T00:04:02.281Z,100567.48
2019-01-15T00:04:37.971Z,100567.91
2019-01-15T00:05:13.675Z,100573.86
2019-01-15T00:05:49.102Z,100570.45
2019-01-15T00:06:24.632Z,100565.34
2019-01-15T00:07:00.308Z,100568.75
2019-01-15T00:07:35.988Z,100573.02
2019-01-15T00:08:11.439Z,100563.66
2019-01-15T00:08:46.853Z,100569.58
2019-01-15T00:09:22.276Z,100565.31
2019-01-15T00:09:57.817Z,100565.33
2019-01-15T00:10:33.253Z,100569.16
2019-01-15T00:11:08.785Z,100561.94
2019-01-15T00:11:44.204Z,100561.89
2019-01-15T00:12:19.731Z,100567.45
2019-01-15T00:12:55.205Z,100560.65
2019-01-15T00:13:30.631Z,100564.89
2019-01-15T00:14:06.252Z,100557.24
2019-01-15T00:14:41.936Z,100558.52
2019-01-15T00:15:17.443Z,100555.54
2019-01-15T00:15:53.134Z,100557.67
2019-01-15T00:16:28.852Z,100558.09
2019-01-15T00:17:04.545Z,100556.82
2019-01-15T00:17:40.506Z,100561.08
2019-01-15T00:18:16.553Z,100560.20
2019-01-15T00:18:51.980Z,100556.78
2019-01-15T00:19:27.736Z,100557.20
2019-01-15T00:20:03.235Z,100559.34
2019-01-15T00:20:38.660Z,100553.40
2019-01-15T00:21:14.143Z,100553.83
2019-01-15T00:21:49.806Z,100555.92
2019-01-15T00:22:25.563Z,100558.50
2019-01-15T00:23:01.131Z,100555.09
2019-01-15T00:23:36.622Z,100559.78
2019-01-15T00:24:12.038Z,100561.89
2019-01-15T00:24:47.464Z,100565.33
2019-01-15T00:25:23.265Z,100565.76
2019-01-15T00:25:58.986Z,100559.82
2019-01-15T00:26:34.453Z,100564.49
2019-01-15T00:27:09.864Z,100567.47
2019-01-15T00:27:46.285Z,100567.05
2019-01-15T00:28:22.686Z,100566.62
2019-01-15T00:28:58.899Z,100573.00
2019-01-15T00:29:35.278Z,100572.55
2019-01-15T00:30:13.549Z,100568.73
2019-01-15T00:30:50.001Z,100568.27
2019-01-15T00:31:26.371Z,100555.50
2019-01-15T00:32:02.732Z,100560.61
2019-01-15T00:32:38.917Z,100568.30
2019-01-15T00:33:14.401Z,100563.17
2019-01-15T00:33:49.843Z,100564.06
2019-01-15T00:34:25.251Z,100561.95
2019-01-15T00:35:00.908Z,100568.77
2019-01-15T00:35:36.656Z,100568.74
2019-01-15T00:36:12.084Z,100576.44
2019-01-15T00:36:48.328Z,100571.31
2019-01-15T00:37:23.727Z,100573.88
2019-01-15T00:37:59.191Z,100578.55
2019-01-15T00:38:36.325Z,100570.91
2019-01-15T00:39:11.948Z,100568.77
2019-01-15T00:39:47.383Z,100570.44
2019-01-15T00:40:22.803Z,100576.02
2019-01-15T00:40:58.861Z,100575.16
2019-01-15T00:41:34.317Z,100573.45
2019-01-15T00:42:15.181Z,100579.41
2019-01-15T00:42:47.452Z,100572.59
2019-01-15T00:43:23.170Z,100574.72
2019-01-15T00:43:58.720Z,100570.48
2019-01-15T00:44:34.401Z,100569.16
2019-01-15T00:45:10.341Z,100561.09
2019-01-15T00:45:45.771Z,100569.64
2019-01-15T00:46:21.216Z,100568.30
2019-01-15T00:46:56.921Z,100579.83
2019-01-15T00:47:32.867Z,100570.03
2019-01-15T00:48:08.578Z,100575.14
2019-01-15T00:48:44.001Z,100570.03
2019-01-15T00:49:19.416Z,100570.05
2019-01-15T00:49:55.145Z,100576.02
2019-01-15T00:50:30.835Z,100569.16
2019-01-15T00:51:06.241Z,100571.75
2019-01-15T00:51:41.669Z,100578.57
2019-01-15T00:52:17.100Z,100575.57
2019-01-15T00:52:52.824Z,100584.09
2019-01-15T00:53:28.279Z,100582.84
2019-01-15T00:54:03.726Z,100578.12
2019-01-15T00:54:39.132Z,100588.34
2019-01-15T00:55:14.652Z,100581.52
2019-01-15T00:55:50.096Z,100582.37
2019-01-15T00:56:25.916Z,100590.86
2019-01-15T00:57:01.880Z,100591.30
2019-01-15T00:57:37.298Z,100588.74
2019-01-15T00:58:12.755Z,100589.19
2019-01-15T00:58:48.325Z,100587.89
2019-01-15T00:59:23.766Z,100587.05
2019-01-15T00:59:59.422Z,100593.02
2019-01-15T01:00:35.211Z,100590.03
2019-01-15T01:01:11.071Z,100601.13
2019-01-15T01:01:46.534Z,100595.17
2019-01-15T01:02:21.960Z,100600.72
2019-01-15T01:02:57.729Z,100597.72
2019-01-15T01:03:33.218Z,100599.02
2019-01-15T01:04:08.661Z,100601.11
2019-01-15T01:04:44.379Z,100594.31
2019-01-15T01:05:20.831Z,100603.27
2019-01-15T01:05:56.533Z,100605.41
2019-01-15T01:06:33.567Z,100602.85
2019-01-15T01:07:09.029Z,100604.55
2019-01-15T01:07:44.466Z,100605.42
2019-01-15T01:08:20.169Z,100606.24
2019-01-15T01:08:55.575Z,100612.23
2019-01-15T01:09:31.323Z,100608.80
2019-01-15T01:10:07.630Z,100612.63
2019-01-15T01:10:43.070Z,100610.52
2019-01-15T01:11:18.476Z,100609.23
2019-01-15T01:11:54.288Z,100614.76
2019-01-15T01:12:30.054Z,100605.81
2019-01-15T01:13:05.782Z,100604.95
2019-01-15T01:13:41.340Z,100606.69
2019-01-15T01:14:16.865Z,100612.65
2019-01-15T01:14:52.320Z,100607.95
2019-01-15T01:15:27.754Z,100604.98
2019-01-15T01:16:03.238Z,100616.89
2019-01-15T01:16:38.681Z,100611.38
2019-01-15T01:17:14.105Z,100611.80
2019-01-15T01:17:49.812Z,100615.63
2019-01-15T01:18:25.275Z,100618.62
2019-01-15T01:19:00.800Z,100611.78
2019-01-15T01:19:36.261Z,100613.08
2019-01-15T01:20:13.683Z,100614.77
2019-01-15T01:20:49.348Z,100612.63
2019-01-15T01:21:24.906Z,100612.63
2019-01-15T01:22:00.716Z,100604.98
2019-01-15T01:22:36.258Z,100603.69
2019-01-15T01:23:11.714Z,100606.27
2019-01-15T01:23:47.159Z,100604.55
2019-01-15T01:24:22.572Z,100606.70
2019-01-15T01:24:57.991Z,100606.27
2019-01-15T01:25:33.795Z,100610.53
2019-01-15T01:26:09.355Z,100613.06
2019-01-15T01:26:44.785Z,100615.20
2019-01-15T01:27:20.215Z,100618.59
2019-01-15T01:27:55.631Z,100616.50
2019-01-15T01:28:31.616Z,100623.31
2019-01-15T01:29:07.305Z,100617.73
2019-01-15T01:29:43.055Z,100614.76
2019-01-15T01:30:23.306Z,100617.33
2019-01-15T01:31:01.109Z,100614.77
2019-01-15T01:31:36.549Z,100616.89
2019-01-15T01:32:12.255Z,100619.87
2019-01-15T01:32:47.694Z,100614.78
2019-01-15T01:33:23.216Z,100618.59
2019-01-15T01:33:59.024Z,100618.59
2019-01-15T01:34:34.479Z,100616.48
2019-01-15T01:35:10.031Z,100617.75
2019-01-15T01:35:45.467Z,100615.19
2019-01-15T01:36:20.880Z,100614.77
2019-01-15T01:36:56.311Z,100621.58
2019-01-15T01:37:32.076Z,100621.59
2019-01-15T01:38:07.662Z,100614.36
2019-01-15T01:38:43.109Z,100621.16
2019-01-15T01:39:18.796Z,100619.89
2019-01-15T01:39:55.912Z,100622.02
2019-01-15T01:40:31.351Z,100623.73
2019-01-15T01:41:06.828Z,100622.02
2019-01-15T01:41:42.294Z,100625.02
2019-01-15T01:42:18.066Z,100627.57
2019-01-15T01:42:53.611Z,100617.77
2019-01-15T01:43:29.707Z,100620.73
2019-01-15T01:44:05.404Z,100621.16
2019-01-15T01:44:41.365Z,100623.73
2019-01-15T01:45:17.382Z,100628.42
2019-01-15T01:45:52.799Z,100619.88
2019-01-15T01:46:28.225Z,100624.56
2019-01-15T01:47:03.963Z,100624.56
2019-01-15T01:47:39.421Z,100621.17
2019-01-15T01:48:14.988Z,100625.85
2019-01-15T01:48:50.434Z,100623.73
2019-01-15T01:49:25.887Z,100618.60
2019-01-15T01:50:02.134Z,100622.85
2019-01-15T01:50:37.659Z,100621.59
2019-01-15T01:51:13.113Z,100619.91
2019-01-15T01:51:48.641Z,100621.59
2019-01-15T01:52:24.348Z,100615.62
2019-01-15T01:52:59.809Z,100616.49
2019-01-15T01:53:35.281Z,100613.50
2019-01-15T01:54:10.974Z,100619.89
2019-01-15T01:54:46.490Z,100615.21
2019-01-15T01:55:22.180Z,100609.23
2019-01-15T01:55:58.416Z,100615.19
2019-01-15T01:56:33.947Z,100613.91
2019-01-15T01:57:09.404Z,100616.92
2019-01-15T01:57:45.281Z,100614.37
2019-01-15T01:58:20.708Z,100608.41
2019-01-15T01:58:56.159Z,100612.63
2019-01-15T01:59:31.907Z,100613.08
2019-01-15T02:00:15.707Z,100610.95
2019-01-15T02:00:51.111Z,100621.16
2019-01-15T02:01:26.541Z,100623.30
2019-01-15T02:02:02.340Z,100622.45
2019-01-15T02:02:37.961Z,100620.73
2019-01-15T02:03:13.373Z,100619.89
2019-01-15T02:03:48.808Z,100612.66
2019-01-15T02:04:24.336Z,100617.75
2019-01-15T02:05:00.181Z,100621.19
2019-01-15T02:05:35.585Z,100621.19
2019-01-15T02:06:11.006Z,100619.47
2019-01-15T02:06:46.414Z,100622.88
2019-01-15T02:07:21.908Z,100623.31
2019-01-15T02:07:57.329Z,100618.62
2019-01-15T02:08:32.907Z,100618.20
2019-01-15T02:09:09.533Z,100622.45
2019-01-15T02:09:45.199Z,100619.04
2019-01-15T02:10:20.968Z,100616.92
2019-01-15T02:10:56.378Z,100624.58
2019-01-15T02:11:31.874Z,100618.17
2019-01-15T02:12:07.487Z,100623.72
2019-01-15T02:12:42.978Z,100623.29
2019-01-15T02:13:18.402Z,100619.89
2019-01-15T02:13:53.837Z,100629.67
2019-01-15T02:14:29.253Z,100624.58
2019-01-15T02:15:05.719Z,100629.25
2019-01-15T02:15:41.139Z,100623.72
2019-01-15T02:16:16.597Z,100635.64
2019-01-15T02:16:52.303Z,100629.27
2019-01-15T02:17:27.695Z,100625.84
2019-01-15T02:18:03.145Z,100621.17
2019-01-15T02:18:38.587Z,100620.75
2019-01-15T02:19:14.457Z,100630.53
2019-01-15T02:19:50.143Z,100630.11
2019-01-15T02:20:26.179Z,100628.84
2019-01-15T02:21:01.670Z,100636.50
2019-01-15T02:21:37.581Z,100629.25
2019-01-15T02:22:13.019Z,100633.96
2019-01-15T02:22:48.963Z,100626.72
2019-01-15T02:23:24.408Z,100631.41
2019-01-15T02:24:00.125Z,100626.70
2019-01-15T02:24:35.651Z,100631.80
2019-01-15T02:25:11.959Z,100630.11
2019-01-15T02:25:47.645Z,100628.41
2019-01-15T02:26:23.097Z,100628.41
2019-01-15T02:27:00.212Z,100633.10
2019-01-15T02:27:36.966Z,100633.93
2019-01-15T02:28:12.380Z,100631.38
2019-01-15T02:28:47.808Z,100633.50
2019-01-15T02:29:23.246Z,100633.52
2019-01-15T02:29:58.925Z,100636.91
2019-01-15T02:30:34.455Z,100628.85
2019-01-15T02:31:10.145Z,100637.36
2019-01-15T02:31:46.274Z,100633.52
2019-01-15T02:32:21.688Z,100634.36
2019-01-15T02:32:57.099Z,100635.22
2019-01-15T02:33:32.534Z,100630.53
2019-01-15T02:34:07.993Z,100633.94
2019-01-15T02:34:43.410Z,100633.10
2019-01-15T02:35:18.830Z,100631.80
2019-01-15T02:35:54.559Z,100631.38
2019-01-15T02:36:30.051Z,100629.25
2019-01-15T02:37:05.983Z,100625.00
2019-01-15T02:37:41.417Z,100630.55
2019-01-15T02:38:17.445Z,100627.13
2019-01-15T02:38:53.017Z,100622.88
2019-01-15T02:39:28.712Z,100630.11
2019-01-15T02:40:05.334Z,100627.55
2019-01-15T02:40:40.768Z,100625.44
2019-01-15T02:41:16.459Z,100622.86
2019-01-15T02:41:52.350Z,100623.28
2019-01-15T02:42:27.779Z,100617.75
2019-01-15T02:43:03.557Z,100632.25
2019-01-15T02:43:39.257Z,100629.25
2019-01-15T02:44:14.970Z,100630.95
2019-01-15T02:44:50.410Z,100627.98
2019-01-15T02:45:26.084Z,100633.95
2019-01-15T02:46:01.924Z,100627.97
2019-01-15T02:46:37.703Z,100630.11
2019-01-15T02:47:13.536Z,100622.03
2019-01-15T02:47:49.080Z,100626.27
2019-01-15T02:48:24.560Z,100630.53
2019-01-15T02:49:00.034Z,100632.67
2019-01-15T02:49:35.486Z,100635.23
2019-01-15T02:50:13.812Z,100627.98
2019-01-15T02:50:49.470Z,100630.96
2019-01-15T02:51:24.914Z,100629.27
2019-01-15T02:52:00.612Z,100632.66
2019-01-15T02:52:36.060Z,100633.10
2019-01-15T02:53:11.491Z,100634.80
2019-01-15T02:53:47.003Z,100633.97
2019-01-15T02:54:22.803Z,100628.84
2019-01-15T02:54:58.215Z,100633.52
2019-01-15T02:55:33.667Z,100636.52
2019-01-15T02:56:09.373Z,100634.38
2019-01-15T02:56:45.082Z,100625.00
2019-01-15T02:57:20.630Z,100633.53
2019-01-15T02:57:56.148Z,100626.69
2019-01-15T02:58:31.843Z,100637.35
2019-01-15T02:59:07.384Z,100636.92
2019-01-15T02:59:42.877Z,100630.97
2019-01-15T03:00:20.518Z,100632.67
2019-01-15T03:00:56.175Z,100627.14
2019-01-15T03:01:31.965Z,100632.66
2019-01-15T03:02:07.784Z,100625.00
2019-01-15T03:02:43.464Z,100631.39
2019-01-15T03:03:18.892Z,100633.53
2019-01-15T03:03:54.302Z,100636.07
2019-01-15T03:04:29.757Z,100633.09
2019-01-15T03:05:06.061Z,100633.52
2019-01-15T03:05:41.472Z,100632.66
2019-01-15T03:06:16.926Z,100631.80
2019-01-15T03:06:52.356Z,100635.22
2019-01-15T03:07:27.786Z,100629.69
2019-01-15T03:08:04.597Z,100636.91
2019-01-15T03:08:40.019Z,100637.34
2019-01-15T03:09:15.732Z,100636.07
2019-01-15T03:09:51.435Z,100641.61
2019-01-15T03:10:26.886Z,100633.94
2019-01-15T03:11:02.256Z,100639.49
2019-01-15T03:11:37.800Z,100642.04
2019-01-15T03:12:13.226Z,100638.20
2019-01-15T03:12:56.732Z,100636.94
2019-01-15T03:13:29.626Z,100636.94
2019-01-15T03:14:05.710Z,100636.09
2019-01-15T03:14:41.132Z,100633.97
2019-01-15T03:15:16.534Z,100634.79
2019-01-15T03:15:52.021Z,100636.51
2019-01-15T03:16:27.705Z,100644.16
2019-01-15T03:17:03.159Z,100637.36
2019-01-15T03:17:38.693Z,100638.63
2019-01-15T03:18:14.119Z,100636.92
2019-01-15T03:18:49.567Z,100635.64
2019-01-15T03:19:24.950Z,100642.45
2019-01-15T03:20:00.461Z,100641.19
2019-01-15T03:20:35.924Z,100646.30
2019-01-15T03:21:11.368Z,100639.06
2019-01-15T03:21:47.354Z,100644.16
2019-01-15T03:22:23.062Z,100643.30
2019-01-15T03:22:58.493Z,100642.88
2019-01-15T03:23:34.640Z,100637.77
2019-01-15T03:24:10.078Z,100636.09
2019-01-15T03:24:45.514Z,100641.61
2019-01-15T03:25:21.146Z,100640.33
2019-01-15T03:25:56.559Z,100641.20
2019-01-15T03:26:32.345Z,100641.17
2019-01-15T03:27:08.155Z,100642.91
2019-01-15T03:27:43.683Z,100633.52
2019-01-15T03:28:19.110Z,100638.22
2019-01-15T03:28:54.506Z,100642.05
2019-01-15T03:29:29.945Z,100633.09
2019-01-15T03:30:07.207Z,100631.82
2019-01-15T03:30:42.662Z,100627.55
2019-01-15T03:31:18.126Z,100626.70
2019-01-15T03:31:53.566Z,100629.27
2019-01-15T03:32:29.764Z,100626.30
2019-01-15T03:33:05.433Z,100623.30
2019-01-15T03:33:41.109Z,100619.47
2019-01-15T03:34:16.511Z,100618.20
2019-01-15T03:34:52.575Z,100628.41
2019-01-15T03:35:28.022Z,100617.78
2019-01-15T03:36:03.499Z,100619.02
2019-01-15T03:36:39.255Z,100621.56
2019-01-15T03:37:14.997Z,100613.50
2019-01-15T03:37:50.440Z,100609.67
2019-01-15T03:38:25.952Z,100606.27
2019-01-15T03:39:01.421Z,100607.54
2019-01-15T03:39:36.867Z,100607.52
2019-01-15T03:40:18.509Z,100613.52
2019-01-15T03:40:54.210Z,100608.39
2019-01-15T03:41:29.663Z,100613.50
2019-01-15T03:42:05.482Z,100617.77
2019-01-15T03:42:40.915Z,100604.13
2019-01-15T03:43:16.338Z,100613.06
2019-01-15T03:43:52.050Z,100614.34
2019-01-15T03:44:27.713Z,100610.95
2019-01-15T03:45:04.962Z,100610.94
2019-01-15T03:45:40.341Z,100604.12
2019-01-15T03:46:15.769Z,100608.38
2019-01-15T03:46:51.296Z,100596.91
2019-01-15T03:47:26.819Z,100606.69
2019-01-15T03:48:02.535Z,100598.19
2019-01-15T03:48:38.026Z,100599.86
2019-01-15T03:49:13.477Z,100603.27
2019-01-15T03:49:48.989Z,100611.36
2019-01-15T03:50:24.684Z,100611.80
2019-01-15T03:51:00.483Z,100605.38
2019-01-15T03:51:35.917Z,100613.06
2019-01-15T03:52:11.454Z,100609.23
2019-01-15T03:52:46.874Z,100616.04
2019-01-15T03:53:22.286Z,100614.73
2019-01-15T03:53:57.695Z,100610.08
2019-01-15T03:54:33.698Z,100605.39
2019-01-15T03:55:10.436Z,100607.06
2019-01-15T03:55:45.856Z,100601.11
2019-01-15T03:56:21.571Z,100607.48
2019-01-15T03:56:57.242Z,100601.95
2019-01-15T03:57:32.708Z,100601.09
2019-01-15T03:58:08.478Z,100602.81
2019-01-15T03:58:43.910Z,100602.84
2019-01-15T03:59:19.352Z,100606.63
2019-01-15T03:59:54.768Z,100607.08
2019-01-15T04:00:30.258Z,100605.38
2019-01-15T04:01:06.421Z,100604.09
2019-01-15T04:01:41.874Z,100597.72
2019-01-15T04:02:17.393Z,100593.47
2019-01-15T04:02:52.887Z,100603.66
2019-01-15T04:03:28.655Z,100599.39
2019-01-15T04:04:04.173Z,100604.09
2019-01-15T04:04:39.876Z,100605.38
2019-01-15T04:05:16.276Z,100607.90
2019-01-15T04:05:51.813Z,100605.78
2019-01-15T04:06:27.255Z,100610.92
2019-01-15T04:07:02.903Z,100612.17
2019-01-15T04:07:38.677Z,100617.28
2019-01-15T04:08:14.179Z,100610.47
2019-01-15T04:08:49.640Z,100613.02
2019-01-15T04:09:25.504Z,100613.44
2019-01-15T04:10:00.986Z,100620.22
2019-01-15T04:10:36.475Z,100618.53
2019-01-15T04:11:12.292Z,100614.71
2019-01-15T04:11:47.982Z,100622.80
2019-01-15T04:12:23.405Z,100626.61
2019-01-15T04:12:59.131Z,100627.06
2019-01-15T04:13:34.657Z,100626.20
2019-01-15T04:14:10.387Z,100626.61
2019-01-15T04:14:45.823Z,100626.59
2019-01-15T04:15:21.541Z,100630.87
2019-01-15T04:15:56.987Z,100629.14
2019-01-15T04:16:32.785Z,100631.27
2019-01-15T04:17:08.379Z,100632.13
2019-01-15T04:17:43.814Z,100621.06
2019-01-15T04:18:19.249Z,100626.59
2019-01-15T04:18:54.694Z,100623.61
2019-01-15T04:19:30.496Z,100624.02
2019-01-15T04:20:08.541Z,100622.32
2019-01-15T04:20:44.068Z,100616.83
2019-01-15T04:21:19.835Z,100618.53
2019-01-15T04:21:55.268Z,100617.27
2019-01-15T04:22:30.674Z,100618.14
2019-01-15T04:23:06.160Z,100618.16
2019-01-15T04:23:41.907Z,100613.03
2019-01-15T04:24:17.342Z,100607.09
2019-01-15T04:24:52.783Z,100600.67
2019-01-15T04:25:28.717Z,100603.65
2019-01-15T04:26:04.364Z,100607.91
2019-01-15T04:26:41.359Z,100599.78
2019-01-15T04:27:16.788Z,100594.70
2019-01-15T04:27:52.527Z,100599.37
2019-01-15T04:28:28.000Z,100599.77
2019-01-15T04:29:03.450Z,100586.14
2019-01-15T04:29:38.927Z,100583.19
2019-01-15T04:30:22.864Z,100590.02
2019-01-15T04:30:58.303Z,100584.08
2019-01-15T04:31:33.813Z,100576.41
2019-01-15T04:32:09.280Z,100576.41
2019-01-15T04:32:44.749Z,100570.00
2019-01-15T04:33:20.450Z,100578.52
2019-01-15T04:33:55.880Z,100586.16
2019-01-15T04:34:31.620Z,100580.66
2019-01-15T04:35:08.200Z,100572.13
2019-01-15T04:35:43.656Z,100576.41
2019-01-15T04:36:19.163Z,100580.20
2019-01-15T04:36:54.599Z,100580.22
2019-01-15T04:37:30.058Z,100581.08
2019-01-15T04:38:05.880Z,100575.97
2019-01-15T04:38:41.372Z,100578.94
2019-01-15T04:39:16.830Z,100578.09
2019-01-15T04:39:52.683Z,100575.11
2019-01-15T04:40:28.101Z,100576.39
2019-01-15T04:41:03.856Z,100574.22
2019-01-15T04:41:39.334Z,100572.09
2019-01-15T04:42:14.751Z,100571.26
2019-01-15T04:42:50.527Z,100570.83
2019-01-15T04:43:25.975Z,100573.84
2019-01-15T04:44:01.676Z,100568.31
2019-01-15T04:44:37.151Z,100569.16
2019-01-15T04:45:13.951Z,100567.04
2019-01-15T04:45:49.372Z,100574.69
2019-01-15T04:46:24.797Z,100570.03
2019-01-15T04:47:00.227Z,100570.85
2019-01-15T04:47:35.714Z,100571.70
2019-01-15T04:48:11.197Z,100568.31
2019-01-15T04:48:46.656Z,100562.78
2019-01-15T04:49:22.102Z,100565.80
2019-01-15T04:49:57.531Z,100563.23
2019-01-15T04:50:33.040Z,100562.36
2019-01-15T04:51:08.469Z,100562.38
2019-01-15T04:51:44.138Z,100563.64
2019-01-15T04:52:19.953Z,100567.44
2019-01-15T04:53:02.527Z,100562.75
2019-01-15T04:53:38.602Z,100563.61
2019-01-15T04:54:14.027Z,100565.31
2019-01-15T04:54:49.739Z,100563.20
2019-01-15T04:55:25.172Z,100555.98
2019-01-15T04:56:00.905Z,100558.50
2019-01-15T04:56:36.439Z,100558.50
2019-01-15T04:57:11.972Z,100561.91
2019-01-15T04:57:47.699Z,100565.75
2019-01-15T04:58:23.081Z,100568.30
2019-01-15T04:58:58.547Z,100564.47
2019-01-15T04:59:34.094Z,100566.61
2019-01-15T05:00:12.787Z,100571.30
2019-01-15T05:00:48.300Z,100565.34
2019-01-15T05:01:23.810Z,100564.45
2019-01-15T05:01:59.604Z,100572.13
2019-01-15T05:02:36.047Z,100569.97
2019-01-15T05:03:12.275Z,100575.94
2019-01-15T05:03:47.733Z,100575.51
2019-01-15T05:04:23.449Z,100575.51
2019-01-15T05:04:58.886Z,100573.37
2019-01-15T05:05:34.923Z,100580.19
2019-01-15T05:06:10.371Z,100576.34
2019-01-15T05:06:45.787Z,100588.28
2019-01-15T05:07:21.478Z,100582.74
2019-01-15T05:07:56.875Z,100575.51
2019-01-15T05:08:32.363Z,100582.30
2019-01-15T05:09:08.819Z,100584.03
2019-01-15T05:09:44.355Z,100586.99
2019-01-15T05:10:19.878Z,100589.16
2019-01-15T05:10:55.308Z,100587.04
2019-01-15T05:11:30.750Z,100588.70
2019-01-15T05:12:06.230Z,100585.74
2019-01-15T05:12:41.646Z,100589.58
2019-01-15T05:13:17.115Z,100589.17
2019-01-15T05:13:52.588Z,100590.84
2019-01-15T05:14:28.044Z,100587.89
2019-01-15T05:15:03.737Z,100595.11
2019-01-15T05:15:39.170Z,100587.48
2019-01-15T05:16:14.665Z,100587.03
2019-01-15T05:16:50.379Z,100591.72
2019-01-15T05:17:25.812Z,100593.42
2019-01-15T05:18:01.549Z,100590.44
2019-01-15T05:18:37.003Z,100588.33
2019-01-15T05:19:12.809Z,100592.56
2019-01-15T05:19:48.290Z,100592.13
2019-01-15T05:20:23.991Z,100602.75
2019-01-15T05:20:59.914Z,100597.22
2019-01-15T05:21:35.382Z,100594.70
2019-01-15T05:22:11.041Z,100593.43
2019-01-15T05:22:46.501Z,100590.88
2019-01-15T05:23:22.287Z,100594.69
2019-01-15T05:23:57.761Z,100595.55
2019-01-15T05:24:33.520Z,100598.53
2019-01-15T05:25:11.687Z,100597.27
2019-01-15T05:25:47.378Z,100593.84
2019-01-15T05:26:23.089Z,100596.01
2019-01-15T05:26:58.523Z,100591.29
2019-01-15T05:27:34.019Z,100594.27
2019-01-15T05:28:09.450Z,100589.57
2019-01-15T05:28:44.975Z,100592.97
2019-01-15T05:29:20.439Z,100589.57
2019-01-15T05:29:55.845Z,100587.86
2019-01-15T05:30:31.449Z,100592.14
2019-01-15T05:31:06.916Z,100587.47
2019-01-15T05:31:42.350Z,100581.05
2019-01-15T05:32:18.350Z,100584.03
2019-01-15T05:32:54.702Z,100575.56
2019-01-15T05:33:30.128Z,100577.67
2019-01-15T05:34:05.963Z,100583.19
2019-01-15T05:34:41.400Z,100581.05
2019-01-15T05:35:17.185Z,100581.49
2019-01-15T05:35:52.865Z,100584.05
2019-01-15T05:36:28.326Z,100586.16
2019-01-15T05:37:04.030Z,100591.70
2019-01-15T05:37:39.544Z,100584.89
2019-01-15T05:38:15.325Z,100581.48
2019-01-15T05:38:50.760Z,100581.06
2019-01-15T05:39:26.481Z,100578.95
2019-01-15T05:40:02.301Z,100583.64
2019-01-15T05:40:38.017Z,100579.35
2019-01-15T05:41:13.460Z,100575.10
2019-01-15T05:41:48.884Z,100578.95
2019-01-15T05:42:24.578Z,100577.27
2019-01-15T05:43:00.313Z,100576.38
2019-01-15T05:43:36.078Z,100571.27
2019-01-15T05:44:11.541Z,100569.16
2019-01-15T05:44:46.955Z,100576.40
2019-01-15T05:45:28.276Z,100576.80
2019-01-15T05:46:03.955Z,100575.11
2019-01-15T05:46:39.661Z,100573.41
2019-01-15T05:47:16.955Z,100576.82
2019-01-15T05:47:53.445Z,100574.69
2019-01-15T05:48:36.470Z,100579.36
2019-01-15T05:49:12.413Z,100579.38
2019-01-15T05:49:48.039Z,100578.09
2019-01-15T05:50:30.804Z,100578.55
2019-01-15T05:51:12.743Z,100577.27
2019-01-15T05:51:48.443Z,100574.27
2019-01-15T05:52:23.889Z,100576.00
2019-01-15T05:52:59.328Z,100577.30
2019-01-15T05:53:34.726Z,100573.88
2019-01-15T05:54:10.200Z,100578.55
2019-01-15T05:54:46.252Z,100582.36
2019-01-15T05:55:21.696Z,100578.12
2019-01-15T05:55:57.128Z,100577.25
2019-01-15T05:56:32.597Z,100578.54
2019-01-15T05:57:08.041Z,100587.03
2019-01-15T05:57:43.751Z,100580.63
2019-01-15T05:58:19.435Z,100575.53
2019-01-15T05:58:55.189Z,100583.64
2019-01-15T05:59:30.946Z,100569.61
2019-01-15T06:00:07.553Z,100577.66
2019-01-15T06:00:43.053Z,100581.53
2019-01-15T06:01:18.471Z,100586.64
2019-01-15T06:01:53.894Z,100577.25
2019-01-15T06:02:29.346Z,100585.32
2019-01-15T06:03:04.903Z,100576.41
2019-01-15T06:03:40.499Z,100574.70
2019-01-15T06:04:15.997Z,100570.02
2019-01-15T06:04:51.413Z,100575.13
2019-01-15T06:05:28.033Z,100567.48
2019-01-15T06:06:03.669Z,100564.48
2019-01-15T06:06:39.187Z,100572.16
2019-01-15T06:07:14.618Z,100564.08
2019-01-15T06:07:50.053Z,100568.75
2019-01-15T06:08:25.495Z,100572.16
2019-01-15T06:09:01.169Z,100573.84
2019-01-15T06:09:36.994Z,100565.34
2019-01-15T06:10:12.607Z,100565.77
2019-01-15T06:10:48.143Z,100569.60
2019-01-15T06:11:23.680Z,100569.56
2019-01-15T06:11:59.376Z,100572.14
2019-01-15T06:12:34.850Z,100570.41
2019-01-15T06:13:10.313Z,100565.31
2019-01-15T06:13:45.746Z,100569.56
2019-01-15T06:14:21.218Z,100572.97
2019-01-15T06:14:56.607Z,100575.09
2019-01-15T06:15:32.312Z,100575.94
2019-01-15T06:16:08.157Z,100574.67
2019-01-15T06:16:43.582Z,100575.55
2019-01-15T06:17:19.253Z,100579.37
2019-01-15T06:17:54.679Z,100576.78
2019-01-15T06:18:30.398Z,100576.34
2019-01-15T06:19:05.976Z,100564.84
2019-01-15T06:19:41.783Z,100576.34
2019-01-15T06:20:17.239Z,100572.11
2019-01-15T06:20:52.680Z,100568.30
2019-01-15T06:21:28.095Z,100574.69
2019-01-15T06:22:04.445Z,100576.83
2019-01-15T06:22:40.268Z,100571.32
2019-01-15T06:23:15.968Z,100581.52
2019-01-15T06:23:51.961Z,100574.71
2019-01-15T06:24:27.519Z,100585.75
2019-01-15T06:25:03.486Z,100578.95
2019-01-15T06:25:39.124Z,100582.74
2019-01-15T06:26:15.429Z,100581.05
2019-01-15T06:26:51.357Z,100576.80
2019-01-15T06:27:26.944Z,100582.33
2019-01-15T06:28:02.548Z,100583.59
2019-01-15T06:28:38.116Z,100582.32
2019-01-15T06:29:13.906Z,100588.30
2019-01-15T06:29:49.628Z,100587.42
2019-01-15T06:30:25.313Z,100582.78
2019-01-15T06:31:00.760Z,100586.20
2019-01-15T06:31:36.495Z,100577.19
2019-01-15T06:32:12.038Z,100582.75
2019-01-15T06:32:48.030Z,100580.19
2019-01-15T06:33:23.574Z,100573.81
2019-01-15T06:33:59.076Z,100582.75
2019-01-15T06:34:35.144Z,100582.78
2019-01-15T06:35:10.740Z,100578.94
2019-01-15T06:35:46.174Z,100579.34
2019-01-15T06:36:21.622Z,100576.80
2019-01-15T06:36:57.066Z,100582.34
2019-01-15T06:37:32.686Z,100584.89
2019-01-15T06:38:08.172Z,100577.60
2019-01-15T06:38:43.623Z,100577.62
2019-01-15T06:39:19.044Z,100575.94
2019-01-15T06:39:54.794Z,100564.88
2019-01-15T06:40:30.345Z,100566.18
2019-01-15T06:41:05.810Z,100564.03
2019-01-15T06:41:41.275Z,100569.98
2019-01-15T06:42:16.805Z,100567.00
2019-01-15T06:42:52.493Z,100566.14
2019-01-15T06:43:28.523Z,100566.59
2019-01-15T06:44:04.062Z,100574.25
2019-01-15T06:44:39.585Z,100574.23
2019-01-15T06:45:17.603Z,100572.94
2019-01-15T06:45:53.047Z,100570.84
2019-01-15T06:46:28.502Z,100568.69
2019-01-15T06:47:04.026Z,100569.55
2019-01-15T06:47:39.583Z,100574.67
2019-01-15T06:48:17.092Z,100580.19